createdAt,value
2018-09-18T00:00:21.725Z,1007.31
2018-09-18T00:01:21.766Z,1007.32
2018-09-18T00:02:21.780Z,1007.27
2018-09-18T00:03:21.809Z,1007.30
2018-09-18T00:04:21.839Z,1007.26
2018-09-18T00:05:21.869Z,1007.29
2018-09-18T00:06:21.895Z,1007.30
2018-09-18T00:07:21.927Z,1007.30
2018-09-18T00:08:21.955Z,1007.25
2018-09-18T00:09:21.981Z,1007.29
2018-09-18T00:10:22.009Z,1007.27
2018-09-18T00:11:22.039Z,1007.26
2018-09-18T00:12:22.066Z,1007.24
2018-09-18T00:13:22.098Z,1007.22
2018-09-18T00:14:22.125Z,1007.21
2018-09-18T00:15:22.156Z,1007.18
2018-09-18T00:16:22.184Z,1007.17
2018-09-18T00:17:22.213Z,1007.16
2018-09-18T00:18:22.542Z,1007.11
2018-09-18T00:19:22.270Z,1007.11
2018-09-18T00:20:22.297Z,1007.08
2018-09-18T00:21:22.327Z,1007.10
2018-09-18T00:22:22.353Z,1007.11
2018-09-18T00:23:22.385Z,1007.11
2018-09-18T00:24:22.412Z,1007.10
2018-09-18T00:25:22.442Z,1007.06
2018-09-18T00:26:22.471Z,1007.12
2018-09-18T00:27:22.498Z,1007.11
2018-09-18T00:28:22.526Z,1007.09
2018-09-18T00:29:22.554Z,1007.06
2018-09-18T00:30:22.584Z,1007.05
2018-09-18T00:31:22.616Z,1007.09
2018-09-18T00:32:22.642Z,1007.08
2018-09-18T00:33:22.672Z,1007.07
2018-09-18T00:34:22.701Z,1007.08
2018-09-18T00:35:22.729Z,1007.09
2018-09-18T00:36:22.755Z,1007.09
2018-09-18T00:37:22.786Z,1007.10
2018-09-18T00:38:22.814Z,1007.04
2018-09-18T00:39:22.842Z,1007.04
2018-09-18T00:40:22.871Z,1007.06
2018-09-18T00:41:22.898Z,1007.04
2018-09-18T00:42:22.931Z,1007.04
2018-09-18T00:43:22.958Z,1007.03
2018-09-18T00:44:22.984Z,1007.01
2018-09-18T00:45:23.015Z,1007.02
2018-09-18T00:46:23.042Z,1007.05
2018-09-18T00:47:23.071Z,1007.03
2018-09-18T00:48:23.101Z,1007.01
2018-09-18T00:49:23.133Z,1007.02
2018-09-18T00:50:23.155Z,1006.99
2018-09-18T00:51:23.187Z,1006.97
2018-09-18T00:52:23.214Z,1006.94
2018-09-18T00:53:23.240Z,1006.96
2018-09-18T00:54:23.269Z,1006.93
2018-09-18T00:55:23.301Z,1006.93
2018-09-18T00:56:23.329Z,1006.93
2018-09-18T00:57:23.357Z,1006.90
2018-09-18T00:58:23.384Z,1006.86
2018-09-18T00:59:23.413Z,1006.89
2018-09-18T01:00:23.440Z,1006.88
2018-09-18T01:01:23.472Z,1006.88
2018-09-18T01:02:23.500Z,1006.88
2018-09-18T01:03:23.528Z,1006.84
2018-09-18T01:04:23.554Z,1006.87
2018-09-18T01:05:23.584Z,1006.84
2018-09-18T01:06:23.615Z,1006.82
2018-09-18T01:07:23.647Z,1006.84
2018-09-18T01:08:23.670Z,1006.80
2018-09-18T01:09:23.697Z,1006.84
2018-09-18T01:10:23.730Z,1006.84
2018-09-18T01:11:23.756Z,1006.82
2018-09-18T01:12:23.785Z,1006.76
2018-09-18T01:13:23.812Z,1006.75
2018-09-18T01:14:23.840Z,1006.82
2018-09-18T01:15:23.872Z,1006.74
2018-09-18T01:16:23.900Z,1006.76
2018-09-18T01:17:23.928Z,1006.74
2018-09-18T01:18:23.958Z,1006.73
2018-09-18T01:19:23.983Z,1006.74
2018-09-18T01:20:24.014Z,1006.75
2018-09-18T01:21:24.041Z,1006.71
2018-09-18T01:22:24.068Z,1006.72
2018-09-18T01:23:24.097Z,1006.75
2018-09-18T01:24:24.125Z,1006.72
2018-09-18T01:25:24.157Z,1006.71
2018-09-18T01:26:24.185Z,1006.70
2018-09-18T01:27:24.214Z,1006.68
2018-09-18T01:28:24.251Z,1006.69
2018-09-18T01:29:24.268Z,1006.70
2018-09-18T01:30:24.298Z,1006.67
2018-09-18T01:31:24.328Z,1006.68
2018-09-18T01:32:24.354Z,1006.71
2018-09-18T01:33:24.385Z,1006.71
2018-09-18T01:34:24.414Z,1006.70
2018-09-18T01:35:24.443Z,1006.65
2018-09-18T01:36:24.470Z,1006.67
2018-09-18T01:37:24.499Z,1006.68
2018-09-18T01:38:24.526Z,1006.69
2018-09-18T01:39:24.557Z,1006.69
2018-09-18T01:40:24.583Z,1006.67
2018-09-18T01:41:24.613Z,1006.70
2018-09-18T01:42:24.638Z,1006.66
2018-09-18T01:43:24.668Z,1006.64
2018-09-18T01:44:24.696Z,1006.66
2018-09-18T01:45:24.738Z,1006.66
2018-09-18T01:46:24.753Z,1006.64
2018-09-18T01:47:24.783Z,1006.66
2018-09-18T01:48:24.810Z,1006.64
2018-09-18T01:49:24.839Z,1006.71
2018-09-18T01:50:24.869Z,1006.67
2018-09-18T01:51:24.897Z,1006.64
2018-09-18T01:52:24.926Z,1006.61
2018-09-18T01:53:24.952Z,1006.59
2018-09-18T01:54:24.982Z,1006.58
2018-09-18T01:55:25.017Z,1006.59
2018-09-18T01:56:25.038Z,1006.59
2018-09-18T01:57:25.069Z,1006.57
2018-09-18T01:58:25.097Z,1006.58
2018-09-18T01:59:25.127Z,1006.61
2018-09-18T02:00:25.152Z,1006.53
2018-09-18T02:01:25.185Z,1006.57
2018-09-18T02:02:25.212Z,1006.55
2018-09-18T02:03:25.241Z,1006.51
2018-09-18T02:04:25.272Z,1006.53
2018-09-18T02:05:25.295Z,1006.51
2018-09-18T02:06:25.324Z,1006.54
2018-09-18T02:07:25.669Z,1006.53
2018-09-18T02:08:25.380Z,1006.55
2018-09-18T02:09:25.411Z,1006.54
2018-09-18T02:10:25.437Z,1006.49
2018-09-18T02:11:25.470Z,1006.51
2018-09-18T02:12:25.494Z,1006.47
2018-09-18T02:13:25.525Z,1006.52
2018-09-18T02:14:25.551Z,1006.48
2018-09-18T02:15:25.581Z,1006.49
2018-09-18T02:16:25.610Z,1006.49
2018-09-18T02:17:25.636Z,1006.50
2018-09-18T02:18:25.667Z,1006.47
2018-09-18T02:19:25.694Z,1006.51
2018-09-18T02:20:25.724Z,1006.48
2018-09-18T02:21:25.749Z,1006.50
2018-09-18T02:22:25.780Z,1006.50
2018-09-18T02:23:25.808Z,1006.48
2018-09-18T02:24:25.838Z,1006.46
2018-09-18T02:25:25.867Z,1006.43
2018-09-18T02:26:25.895Z,1006.44
2018-09-18T02:27:25.923Z,1006.46
2018-09-18T02:28:25.951Z,1006.43
2018-09-18T02:29:25.980Z,1006.46
2018-09-18T02:30:26.011Z,1006.44
2018-09-18T02:31:26.037Z,1006.41
2018-09-18T02:32:26.061Z,1006.41
2018-09-18T02:33:26.093Z,1006.43
2018-09-18T02:34:26.122Z,1006.42
2018-09-18T02:35:26.156Z,1006.38
2018-09-18T02:36:26.177Z,1006.41
2018-09-18T02:37:26.209Z,1006.37
2018-09-18T02:38:26.235Z,1006.37
2018-09-18T02:39:26.266Z,1006.37
2018-09-18T02:40:26.290Z,1006.33
2018-09-18T02:41:26.321Z,1006.34
2018-09-18T02:42:26.350Z,1006.32
2018-09-18T02:43:26.378Z,1006.36
2018-09-18T02:44:26.404Z,1006.34
2018-09-18T02:45:26.434Z,1006.36
2018-09-18T02:46:26.460Z,1006.29
2018-09-18T02:47:26.490Z,1006.30
2018-09-18T02:48:26.519Z,1006.33
2018-09-18T02:49:26.547Z,1006.29
2018-09-18T02:50:26.573Z,1006.27
2018-09-18T02:51:26.604Z,1006.28
2018-09-18T02:52:26.629Z,1006.22
2018-09-18T02:53:26.657Z,1006.26
2018-09-18T02:54:26.686Z,1006.28
2018-09-18T02:55:26.721Z,1006.22
2018-09-18T02:56:26.742Z,1006.23
2018-09-18T02:57:26.774Z,1006.25
2018-09-18T02:58:26.801Z,1006.23
2018-09-18T02:59:26.828Z,1006.22
2018-09-18T03:00:26.856Z,1006.23
2018-09-18T03:01:26.884Z,1006.19
2018-09-18T03:02:26.915Z,1006.18
2018-09-18T03:03:26.946Z,1006.20
2018-09-18T03:04:26.969Z,1006.17
2018-09-18T03:05:27.001Z,1006.19
2018-09-18T03:06:27.028Z,1006.16
2018-09-18T03:07:27.054Z,1006.14
2018-09-18T03:08:27.083Z,1006.14
2018-09-18T03:09:27.110Z,1006.16
2018-09-18T03:10:27.142Z,1006.14
2018-09-18T03:11:27.212Z,1006.11
2018-09-18T03:12:27.196Z,1006.11
2018-09-18T03:13:27.229Z,1006.13
2018-09-18T03:14:27.253Z,1006.10
2018-09-18T03:15:27.285Z,1006.12
2018-09-18T03:16:27.311Z,1006.12
2018-09-18T03:17:27.338Z,1006.13
2018-09-18T03:18:27.366Z,1006.12
2018-09-18T03:19:27.394Z,1006.11
2018-09-18T03:20:27.424Z,1006.12
2018-09-18T03:21:27.449Z,1006.07
2018-09-18T03:22:27.481Z,1006.08
2018-09-18T03:23:27.510Z,1006.05
2018-09-18T03:24:27.537Z,1006.09
2018-09-18T03:25:27.567Z,1006.04
2018-09-18T03:26:27.593Z,1006.02
2018-09-18T03:27:27.772Z,1006.05
2018-09-18T03:28:27.648Z,1006.02
2018-09-18T03:29:27.678Z,1005.98
2018-09-18T03:30:27.708Z,1006.01
2018-09-18T03:31:27.749Z,1006.02
2018-09-18T03:32:27.765Z,1006.00
2018-09-18T03:33:27.797Z,1006.01
2018-09-18T03:34:27.819Z,1006.02
2018-09-18T03:35:27.855Z,1006.00
2018-09-18T03:36:27.875Z,1006.05
2018-09-18T03:37:27.902Z,1006.00
2018-09-18T03:38:27.935Z,1005.97
2018-09-18T03:39:27.962Z,1005.96
2018-09-18T03:40:27.990Z,1005.97
2018-09-18T03:41:28.019Z,1005.95
2018-09-18T03:42:28.047Z,1005.90
2018-09-18T03:43:28.076Z,1005.94
2018-09-18T03:44:28.105Z,1005.91
2018-09-18T03:45:28.128Z,1005.89
2018-09-18T03:46:28.158Z,1005.87
2018-09-18T03:47:28.188Z,1005.88
2018-09-18T03:48:28.219Z,1005.88
2018-09-18T03:49:28.242Z,1005.85
2018-09-18T03:50:28.271Z,1005.85
2018-09-18T03:51:28.300Z,1005.85
2018-09-18T03:52:28.326Z,1005.85
2018-09-18T03:53:28.355Z,1005.85
2018-09-18T03:54:28.383Z,1005.85
2018-09-18T03:55:28.416Z,1005.88
2018-09-18T03:56:28.440Z,1005.89
2018-09-18T03:57:28.471Z,1005.90
2018-09-18T03:58:28.497Z,1005.85
2018-09-18T03:59:28.528Z,1005.83
2018-09-18T04:00:28.555Z,1005.85
2018-09-18T04:01:28.584Z,1005.79
2018-09-18T04:02:28.613Z,1005.86
2018-09-18T04:03:28.639Z,1005.82
2018-09-18T04:04:28.668Z,1005.84
2018-09-18T04:05:28.695Z,1005.80
2018-09-18T04:06:28.724Z,1005.78
2018-09-18T04:07:28.754Z,1005.83
2018-09-18T04:08:28.782Z,1005.80
2018-09-18T04:09:28.807Z,1005.81
2018-09-18T04:10:28.836Z,1005.79
2018-09-18T04:11:28.868Z,1005.79
2018-09-18T04:12:28.900Z,1005.76
2018-09-18T04:13:28.923Z,1005.78
2018-09-18T04:14:28.949Z,1005.75
2018-09-18T04:15:28.992Z,1005.75
2018-09-18T04:16:29.008Z,1005.78
2018-09-18T04:17:29.085Z,1005.73
2018-09-18T04:18:29.063Z,1005.77
2018-09-18T04:19:29.090Z,1005.77
2018-09-18T04:20:29.119Z,1005.73
2018-09-18T04:21:29.147Z,1005.70
2018-09-18T04:22:29.182Z,1005.71
2018-09-18T04:23:29.206Z,1005.72
2018-09-18T04:24:29.231Z,1005.73
2018-09-18T04:25:29.263Z,1005.67
2018-09-18T04:26:29.290Z,1005.68
2018-09-18T04:27:29.317Z,1005.67
2018-09-18T04:28:29.347Z,1005.66
2018-09-18T04:29:29.376Z,1005.69
2018-09-18T04:30:29.404Z,1005.64
2018-09-18T04:31:29.443Z,1005.65
2018-09-18T04:32:29.457Z,1005.68
2018-09-18T04:33:29.486Z,1005.62
2018-09-18T04:34:29.513Z,1005.61
2018-09-18T04:35:29.543Z,1005.60
2018-09-18T04:36:29.570Z,1005.60
2018-09-18T04:37:29.601Z,1005.63
2018-09-18T04:38:29.630Z,1005.59
2018-09-18T04:39:29.657Z,1005.58
2018-09-18T04:40:29.686Z,1005.59
2018-09-18T04:41:29.714Z,1005.59
2018-09-18T04:42:29.741Z,1005.59
2018-09-18T04:43:29.767Z,1005.60
2018-09-18T04:44:29.798Z,1005.54
2018-09-18T04:45:29.825Z,1005.57
2018-09-18T04:46:29.854Z,1005.55
2018-09-18T04:47:29.881Z,1005.54
2018-09-18T04:48:29.916Z,1005.51
2018-09-18T04:49:29.939Z,1005.54
2018-09-18T04:50:29.968Z,1005.54
2018-09-18T04:51:29.995Z,1005.53
2018-09-18T04:52:30.021Z,1005.54
2018-09-18T04:53:30.050Z,1005.55
2018-09-18T04:54:30.080Z,1005.56
2018-09-18T04:55:30.108Z,1005.49
2018-09-18T04:56:30.140Z,1005.53
2018-09-18T04:57:30.163Z,1005.56
2018-09-18T04:58:30.193Z,1005.53
2018-09-18T04:59:30.221Z,1005.53
2018-09-18T05:00:30.248Z,1005.52
2018-09-18T05:01:30.274Z,1005.52
2018-09-18T05:02:30.303Z,1005.55
2018-09-18T05:03:30.334Z,1005.52
2018-09-18T05:04:30.358Z,1005.49
2018-09-18T05:05:30.390Z,1005.49
2018-09-18T05:06:30.418Z,1005.48
2018-09-18T05:07:30.446Z,1005.45
2018-09-18T05:08:30.473Z,1005.45
2018-09-18T05:09:30.505Z,1005.46
2018-09-18T05:10:30.528Z,1005.46
2018-09-18T05:11:30.558Z,1005.47
2018-09-18T05:12:30.583Z,1005.50
2018-09-18T05:13:30.611Z,1005.49
2018-09-18T05:14:30.643Z,1005.48
2018-09-18T05:15:30.672Z,1005.49
2018-09-18T05:16:30.701Z,1005.46
2018-09-18T05:17:30.727Z,1005.45
2018-09-18T05:18:30.753Z,1005.47
2018-09-18T05:19:30.782Z,1005.49
2018-09-18T05:20:30.811Z,1005.47
2018-09-18T05:21:30.841Z,1005.45
2018-09-18T05:22:30.868Z,1005.46
2018-09-18T05:23:30.898Z,1005.48
2018-09-18T05:24:30.922Z,1005.52
2018-09-18T05:25:31.009Z,1005.49
2018-09-18T05:26:30.977Z,1005.45
2018-09-18T05:27:31.011Z,1005.45
2018-09-18T05:28:31.035Z,1005.46
2018-09-18T05:29:31.065Z,1005.43
2018-09-18T05:30:31.090Z,1005.44
2018-09-18T05:31:31.126Z,1005.40
2018-09-18T05:32:31.149Z,1005.37
2018-09-18T05:33:31.181Z,1005.42
2018-09-18T05:34:31.203Z,1005.40
2018-09-18T05:35:31.234Z,1005.42
2018-09-18T05:36:31.259Z,1005.42
2018-09-18T05:37:31.286Z,1005.42
2018-09-18T05:38:31.316Z,1005.42
2018-09-18T05:39:31.347Z,1005.43
2018-09-18T05:40:31.372Z,1005.42
2018-09-18T05:41:31.400Z,1005.41
2018-09-18T05:42:31.433Z,1005.40
2018-09-18T05:43:31.458Z,1005.41
2018-09-18T05:44:31.484Z,1005.43
2018-09-18T05:45:31.517Z,1005.45
2018-09-18T05:46:31.540Z,1005.46
2018-09-18T05:47:31.571Z,1005.42
2018-09-18T05:48:31.599Z,1005.46
2018-09-18T05:49:31.625Z,1005.44
2018-09-18T05:50:31.656Z,1005.44
2018-09-18T05:51:31.684Z,1005.42
2018-09-18T05:52:31.709Z,1005.43
2018-09-18T05:53:31.740Z,1005.48
2018-09-18T05:54:31.766Z,1005.45
2018-09-18T05:55:31.794Z,1005.49
2018-09-18T05:56:31.822Z,1005.47
2018-09-18T05:57:31.855Z,1005.49
2018-09-18T05:58:31.877Z,1005.47
2018-09-18T05:59:31.907Z,1005.48
2018-09-18T06:00:31.935Z,1005.46
2018-09-18T06:01:31.964Z,1005.45
2018-09-18T06:02:31.992Z,1005.46
2018-09-18T06:03:32.022Z,1005.41
2018-09-18T06:04:32.049Z,1005.38
2018-09-18T06:05:32.081Z,1005.40
2018-09-18T06:06:32.450Z,1005.41
2018-09-18T06:07:32.135Z,1005.39
2018-09-18T06:08:32.160Z,1005.41
2018-09-18T06:09:32.189Z,1005.38
2018-09-18T06:10:32.217Z,1005.37
2018-09-18T06:11:32.247Z,1005.38
2018-09-18T06:12:32.338Z,1005.37
2018-09-18T06:13:32.301Z,1006.59
2018-09-18T06:14:32.332Z,1010.87
2018-09-18T06:15:32.358Z,1013.49
2018-09-18T06:16:32.386Z,1014.50
2018-09-18T06:17:32.416Z,1015.52
2018-09-18T06:18:32.442Z,1015.90
2018-09-18T06:19:32.476Z,1014.85
2018-09-18T06:20:32.499Z,1014.50
2018-09-18T06:21:32.528Z,1015.58
2018-09-18T06:22:32.559Z,1016.64
2018-09-18T06:23:32.587Z,1015.29
2018-09-18T06:24:32.612Z,1013.12
2018-09-18T06:25:32.647Z,1013.23
2018-09-18T06:26:32.676Z,1012.09
2018-09-18T06:27:32.705Z,1010.69
2018-09-18T06:28:32.732Z,1010.03
2018-09-18T06:29:32.761Z,1010.14
2018-09-18T06:30:32.790Z,1009.68
2018-09-18T06:31:32.821Z,1008.99
2018-09-18T06:32:32.852Z,1009.07
2018-09-18T06:33:32.878Z,1009.45
2018-09-18T06:34:32.906Z,1009.19
2018-09-18T06:35:32.937Z,1007.62
2018-09-18T06:36:32.968Z,1006.20
2018-09-18T06:37:32.998Z,1006.11
2018-09-18T06:38:33.028Z,1006.59
2018-09-18T06:39:33.056Z,1006.94
2018-09-18T06:40:33.090Z,1006.87
2018-09-18T06:41:33.118Z,1007.52
2018-09-18T06:42:33.151Z,1007.89
2018-09-18T06:43:33.179Z,1007.75
2018-09-18T06:44:33.206Z,1007.84
2018-09-18T06:45:33.239Z,1007.48
2018-09-18T06:46:33.267Z,1007.02
2018-09-18T06:47:33.298Z,1007.26
2018-09-18T06:48:33.329Z,1007.39
2018-09-18T06:49:33.361Z,1007.60
2018-09-18T06:50:33.393Z,1007.52
2018-09-18T06:51:33.420Z,1007.06
2018-09-18T06:52:33.452Z,1006.97
2018-09-18T06:53:33.482Z,1007.09
2018-09-18T06:54:33.549Z,1007.27
2018-09-18T06:55:33.543Z,1007.16
2018-09-18T06:56:33.575Z,1007.23
2018-09-18T06:57:33.606Z,1007.17
2018-09-18T06:58:33.638Z,1006.83
2018-09-18T06:59:33.667Z,1006.71
2018-09-18T07:00:33.696Z,1007.07
2018-09-18T07:01:33.730Z,1007.21
2018-09-18T07:02:33.760Z,1007.04
2018-09-18T07:03:33.789Z,1006.99
2018-09-18T07:04:33.819Z,1006.94
2018-09-18T07:05:33.857Z,1006.98
2018-09-18T07:06:33.884Z,1007.43
2018-09-18T07:07:33.916Z,1007.64
2018-09-18T07:08:33.950Z,1007.17
2018-09-18T07:09:33.976Z,1007.19
2018-09-18T07:10:34.009Z,1006.14
2018-09-18T07:11:34.046Z,1005.38
2018-09-18T07:12:34.073Z,1005.36
2018-09-18T07:13:34.103Z,1005.34
2018-09-18T07:14:34.132Z,1005.44
2018-09-18T07:15:34.163Z,1005.38
2018-09-18T07:16:34.193Z,1005.33
2018-09-18T07:17:34.227Z,1005.37
2018-09-18T07:18:34.258Z,1005.39
2018-09-18T07:19:34.290Z,1005.40
2018-09-18T07:20:34.318Z,1005.38
2018-09-18T07:21:34.348Z,1005.32
2018-09-18T07:22:34.380Z,1005.38
2018-09-18T07:23:34.413Z,1005.35
2018-09-18T07:24:34.443Z,1005.41
2018-09-18T07:25:34.472Z,1006.36
2018-09-18T07:26:34.503Z,1007.25
2018-09-18T07:27:34.534Z,1007.29
2018-09-18T07:28:34.566Z,1007.31
2018-09-18T07:29:34.597Z,1007.32
2018-09-18T07:30:34.628Z,1007.26
2018-09-18T07:31:34.657Z,1007.21
2018-09-18T07:32:34.690Z,1007.16
2018-09-18T07:33:34.722Z,1007.20
2018-09-18T07:34:34.752Z,1007.15
2018-09-18T07:35:34.784Z,1007.08
2018-09-18T07:36:34.813Z,1007.09
2018-09-18T07:37:37.472Z,1006.99
2018-09-18T07:38:34.888Z,1006.93
2018-09-18T07:39:34.915Z,1006.90
2018-09-18T07:40:34.947Z,1006.85
2018-09-18T07:41:34.982Z,1006.75
2018-09-18T07:42:35.013Z,1006.74
2018-09-18T07:43:35.050Z,1006.72
2018-09-18T07:44:35.082Z,1006.62
2018-09-18T07:45:35.121Z,1006.61
2018-09-18T07:46:35.153Z,1006.71
2018-09-18T07:47:35.188Z,1007.25
2018-09-18T07:48:35.227Z,1007.61
2018-09-18T07:49:35.259Z,1007.67
2018-09-18T07:50:35.299Z,1007.80
2018-09-18T07:51:35.328Z,1007.71
2018-09-18T07:52:35.364Z,1007.57
2018-09-18T07:53:35.400Z,1007.61
2018-09-18T07:54:35.437Z,1007.56
2018-09-18T07:55:35.470Z,1007.60
2018-09-18T07:56:35.527Z,1007.61
2018-09-18T07:57:35.552Z,1007.57
2018-09-18T07:58:35.580Z,1007.49
2018-09-18T07:59:35.619Z,1007.38
2018-09-18T08:00:35.653Z,1007.32
2018-09-18T08:01:35.692Z,1007.29
2018-09-18T08:02:35.731Z,1007.24
2018-09-18T08:03:35.768Z,1007.23
2018-09-18T08:04:35.801Z,1007.07
2018-09-18T08:05:35.844Z,1007.01
2018-09-18T08:06:35.879Z,1006.98
2018-09-18T08:07:35.914Z,1006.97
2018-09-18T08:08:35.958Z,1006.98
2018-09-18T08:09:35.991Z,1006.91
2018-09-18T08:10:36.028Z,1006.90
2018-09-18T08:11:36.067Z,1006.79
2018-09-18T08:12:36.103Z,1006.78
2018-09-18T08:13:36.142Z,1006.75
2018-09-18T08:14:36.177Z,1006.72
2018-09-18T08:15:36.216Z,1006.77
2018-09-18T08:16:36.253Z,1006.73
2018-09-18T08:17:36.292Z,1006.66
2018-09-18T08:18:36.351Z,1006.68
2018-09-18T08:19:36.523Z,1006.64
2018-09-18T08:20:36.409Z,1006.59
2018-09-18T08:21:36.445Z,1006.55
2018-09-18T08:22:36.491Z,1006.50
2018-09-18T08:23:36.733Z,1006.50
2018-09-18T08:24:36.557Z,1006.36
2018-09-18T08:25:36.703Z,1006.38
2018-09-18T08:27:37.200Z,1006.34
2018-09-18T08:28:37.034Z,1006.35
2018-09-18T08:29:36.961Z,1006.32
2018-09-18T08:30:36.798Z,1006.25
2018-09-18T08:31:36.839Z,1006.29
2018-09-18T08:32:36.906Z,1006.33
2018-09-18T08:33:36.920Z,1006.32
2018-09-18T08:34:36.944Z,1006.34
2018-09-18T08:35:36.985Z,1006.31
2018-09-18T08:36:37.037Z,1006.35
2018-09-18T08:37:37.059Z,1006.25
2018-09-18T08:38:37.107Z,1006.30
2018-09-18T08:39:37.155Z,1006.30
2018-09-18T08:40:37.206Z,1006.26
2018-09-18T08:41:37.215Z,1006.32
2018-09-18T08:42:37.259Z,1006.27
2018-09-18T08:43:37.309Z,1006.27
2018-09-18T08:44:37.334Z,1006.25
2018-09-18T08:45:37.370Z,1006.21
2018-09-18T08:46:37.414Z,1006.24
2018-09-18T08:47:37.451Z,1006.22
2018-09-18T08:48:37.489Z,1006.24
2018-09-18T08:49:37.530Z,1006.22
2018-09-18T08:50:37.565Z,1006.30
2018-09-18T08:51:37.666Z,1006.24
2018-09-18T08:52:37.649Z,1006.23
2018-09-18T08:53:37.729Z,1006.18
2018-09-18T08:54:37.781Z,1006.15
2018-09-18T08:55:37.781Z,1006.21
2018-09-18T08:56:37.817Z,1006.20
2018-09-18T08:57:37.843Z,1006.12
2018-09-18T08:58:37.884Z,1006.16
2018-09-18T08:59:37.920Z,1006.08
2018-09-18T09:00:37.962Z,1006.09
2018-09-18T09:01:37.998Z,1006.05
2018-09-18T09:02:38.040Z,1006.06
2018-09-18T09:03:38.096Z,1006.05
2018-09-18T09:04:38.133Z,1006.04
2018-09-18T09:05:38.165Z,1006.04
2018-09-18T09:06:38.198Z,1006.10
2018-09-18T09:07:38.319Z,1006.10
2018-09-18T09:08:38.325Z,1006.12
2018-09-18T09:09:38.323Z,1006.09
2018-09-18T09:10:38.418Z,1006.04
2018-09-18T09:11:38.408Z,1006.04
2018-09-18T09:12:38.448Z,1006.03
2018-09-18T09:13:38.475Z,1006.06
2018-09-18T09:14:38.629Z,1006.04
2018-09-18T09:15:38.569Z,1006.03
2018-09-18T09:16:38.593Z,1006.08
2018-09-18T09:17:38.657Z,1006.08
2018-09-18T09:18:39.001Z,1006.08
2018-09-18T09:19:38.718Z,1006.08
2018-09-18T09:20:38.780Z,1006.12
2018-09-18T09:21:38.803Z,1006.12
2018-09-18T09:22:38.926Z,1006.12
2018-09-18T09:23:38.883Z,1006.12
2018-09-18T09:24:38.913Z,1006.13
2018-09-18T09:25:38.956Z,1006.15
2018-09-18T09:26:39.098Z,1006.11
2018-09-18T09:27:39.129Z,1006.14
2018-09-18T09:28:39.078Z,1006.20
2018-09-18T09:29:39.201Z,1006.20
2018-09-18T09:30:39.166Z,1006.17
2018-09-18T09:31:39.204Z,1006.17
2018-09-18T09:32:39.248Z,1006.19
2018-09-18T09:33:39.308Z,1006.19
2018-09-18T09:34:39.328Z,1006.13
2018-09-18T09:35:39.373Z,1006.17
2018-09-18T09:36:39.734Z,1006.12
2018-09-18T09:37:39.452Z,1006.05
2018-09-18T09:38:39.493Z,1006.07
2018-09-18T09:39:39.529Z,1006.16
2018-09-18T09:40:39.568Z,1006.18
2018-09-18T09:41:39.610Z,1006.18
2018-09-18T09:42:39.661Z,1006.09
2018-09-18T09:43:39.697Z,1006.06
2018-09-18T09:44:40.539Z,1006.03
2018-09-18T09:45:39.773Z,1006.02
2018-09-18T09:46:42.430Z,1005.90
2018-09-18T09:48:40.100Z,1005.79
2018-09-18T09:49:39.962Z,1005.87
2018-09-18T09:50:39.972Z,1005.95
2018-09-18T09:52:27.589Z,1006.04
2018-09-18T09:53:27.631Z,1006.06
2018-09-18T09:54:27.667Z,1005.98
2018-09-18T09:55:27.711Z,1006.10
2018-09-18T09:56:27.752Z,1006.04
2018-09-18T09:57:31.630Z,1006.04
2018-09-18T09:58:27.834Z,1006.01
2018-09-18T09:59:27.874Z,1005.98
2018-09-18T10:00:27.919Z,1005.99
2018-09-18T10:01:28.570Z,1005.95
2018-09-18T10:02:27.997Z,1005.97
2018-09-18T10:03:28.041Z,1005.95
2018-09-18T10:04:28.081Z,1005.92
2018-09-18T10:05:28.121Z,1005.88
2018-09-18T10:06:28.165Z,1005.91
2018-09-18T10:07:28.203Z,1005.85
2018-09-18T10:08:28.245Z,1005.84
2018-09-18T10:09:28.289Z,1005.84
2018-09-18T10:10:28.371Z,1005.89
2018-09-18T10:11:28.373Z,1005.81
2018-09-18T10:12:28.412Z,1005.77
2018-09-18T10:13:28.451Z,1005.76
2018-09-18T10:14:28.514Z,1005.71
2018-09-18T10:15:28.538Z,1005.76
2018-09-18T10:16:28.599Z,1005.76
2018-09-18T10:17:28.621Z,1005.74
2018-09-18T10:18:28.664Z,1005.77
2018-09-18T10:19:28.703Z,1005.68
2018-09-18T10:20:28.742Z,1005.79
2018-09-18T10:21:28.784Z,1005.74
2018-09-18T10:22:28.825Z,1005.82
2018-09-18T10:23:28.892Z,1005.71
2018-09-18T10:24:28.907Z,1005.73
2018-09-18T10:25:28.949Z,1005.73
2018-09-18T10:26:29.085Z,1005.66
2018-09-18T10:27:29.043Z,1005.63
2018-09-18T10:28:29.073Z,1005.66
2018-09-18T10:29:29.115Z,1005.66
2018-09-18T10:30:29.170Z,1005.70
2018-09-18T10:31:29.218Z,1005.70
2018-09-18T10:32:29.307Z,1005.70
2018-09-18T10:33:29.295Z,1005.71
2018-09-18T10:34:29.319Z,1005.71
2018-09-18T10:35:29.364Z,1005.67
2018-09-18T10:36:29.404Z,1005.67
2018-09-18T10:37:29.547Z,1005.79
2018-09-18T10:38:29.505Z,1005.71
2018-09-18T10:39:29.588Z,1005.73
2018-09-18T10:40:29.570Z,1005.67
2018-09-18T10:41:29.801Z,1005.70
2018-09-18T10:42:29.652Z,1005.70
2018-09-18T10:43:29.727Z,1005.78
2018-09-18T10:44:29.738Z,1005.69
2018-09-18T10:45:29.777Z,1005.74
2018-09-18T10:46:29.819Z,1005.70
2018-09-18T10:47:29.869Z,1005.74
2018-09-18T10:48:29.901Z,1005.74
2018-09-18T10:49:30.122Z,1005.71
2018-09-18T10:50:30.003Z,1005.67
2018-09-18T10:51:30.034Z,1005.71
2018-09-18T10:52:30.075Z,1005.77
2018-09-18T10:53:30.109Z,1005.70
2018-09-18T10:54:30.151Z,1005.66
2018-09-18T10:55:30.275Z,1005.68
2018-09-18T10:56:30.235Z,1005.71
2018-09-18T10:57:30.274Z,1005.70
2018-09-18T10:58:30.315Z,1005.63
2018-09-18T10:59:30.357Z,1005.67
2018-09-18T11:00:30.400Z,1005.69
2018-09-18T11:01:30.457Z,1005.73
2018-09-18T11:02:30.491Z,1005.70
2018-09-18T11:03:30.539Z,1005.77
2018-09-18T11:04:30.597Z,1005.78
2018-09-18T11:05:30.603Z,1005.75
2018-09-18T11:06:30.666Z,1005.80
2018-09-18T11:07:30.687Z,1005.78
2018-09-18T11:08:30.748Z,1005.71
2018-09-18T11:09:30.772Z,1005.86
2018-09-18T11:10:30.876Z,1005.79
2018-09-18T11:11:30.924Z,1005.73
2018-09-18T11:12:30.917Z,1005.74
2018-09-18T11:13:31.009Z,1005.75
2018-09-18T11:14:31.004Z,1005.81
2018-09-18T11:15:31.115Z,1005.81
2018-09-18T11:16:31.120Z,1005.77
2018-09-18T11:17:31.098Z,1005.71
2018-09-18T11:18:31.156Z,1005.73
2018-09-18T11:19:31.261Z,1005.72
2018-09-18T11:20:31.245Z,1005.75
2018-09-18T11:21:31.272Z,1005.64
2018-09-18T11:22:31.498Z,1005.71
2018-09-18T11:23:31.429Z,1005.66
2018-09-18T11:24:31.418Z,1005.71
2018-09-18T11:25:31.467Z,1005.65
2018-09-18T11:26:31.471Z,1005.58
2018-09-18T11:27:31.509Z,1005.53
2018-09-18T11:28:31.551Z,1005.68
2018-09-18T11:29:31.591Z,1005.53
2018-09-18T11:30:31.631Z,1005.55
2018-09-18T11:31:31.730Z,1005.58
2018-09-18T11:32:31.741Z,1005.58
2018-09-18T11:33:31.783Z,1005.60
2018-09-18T11:34:31.809Z,1005.57
2018-09-18T11:35:31.837Z,1005.56
2018-09-18T11:36:32.079Z,1005.53
2018-09-18T11:37:31.915Z,1005.50
2018-09-18T11:38:31.957Z,1005.53
2018-09-18T11:39:31.998Z,1005.52
2018-09-18T11:40:32.037Z,1005.52
2018-09-18T11:41:32.080Z,1005.56
2018-09-18T11:42:32.125Z,1005.48
2018-09-18T11:43:32.160Z,1005.52
2018-09-18T11:44:32.202Z,1005.49
2018-09-18T11:45:32.302Z,1005.38
2018-09-18T11:46:32.324Z,1005.38
2018-09-18T11:47:32.324Z,1005.27
2018-09-18T11:48:32.363Z,1005.37
2018-09-18T11:49:32.406Z,1005.36
2018-09-18T11:50:32.445Z,1005.44
2018-09-18T11:51:32.487Z,1005.34
2018-09-18T11:52:32.527Z,1005.42
2018-09-18T11:53:32.569Z,1005.38
2018-09-18T11:54:32.606Z,1005.41
2018-09-18T11:55:32.647Z,1005.47
2018-09-18T11:56:32.692Z,1005.46
2018-09-18T11:57:32.729Z,1005.39
2018-09-18T11:58:32.772Z,1005.48
2018-09-18T11:59:32.809Z,1005.43
2018-09-18T12:00:32.853Z,1005.46
2018-09-18T12:01:32.893Z,1005.43
2018-09-18T12:02:32.956Z,1005.46
2018-09-18T12:03:32.972Z,1005.41
2018-09-18T12:04:33.036Z,1005.50
2018-09-18T12:05:33.055Z,1005.40
2018-09-18T12:06:33.095Z,1005.41
2018-09-18T12:07:33.136Z,1005.40
2018-09-18T12:08:33.179Z,1005.39